RAAF Base Richmond
YSRI : rendu visible

Aérodrome :











RETROUVEZ-NOUS SUR...

 
LOGIN :

S'inscrire | Disclaimer

   EN    FR    IT 

 









Légende :    VFR   VFR Marginal   IFR   IFR Intensif   IFR Très Intensif
Visi : 
Plafond : 
>= 8 km
>= 3000ft
5 à 8 km
1000 à 3000 ft
1500m à 5 km
500 à 1000 ft
800 à 1500m
200 à 500 ft
< 800m
< 200 ft
Symboles :   Orages  Brouillard  Fortes neiges  Fortes précipitations  Vent > 20 kt






- Altitude de l'aérodrome : 67 ft


YSRI - RAAF Base Richmond

DERNIER METAR :
  • 021030Z AUTO 07003KT 9999 // NCD 07/03 Q1018 RF00.0/000.0

METARs EXPIRÉS :
  • 021000Z AUTO 00000KT 9999 // NCD 07/04 Q1018
  • 020930Z AUTO 26005KT 9999 // NCD 08/03 Q1018 RF00.0/000.0
  • 020900Z AUTO 25004KT 9999 // NCD 09/03 Q1018
  • 020830Z AUTO 25006KT 9999 // NCD 10/03 Q1017 RF00.0/000.0

TAF AMD TAF YSRI
Valide du 02 à 06h jusqu'au 03 à 06h UTC


020513Z 0206/0306 25014KT 9999 SCT020 BKN030
FM020900 VRB03KT CAVOK
FM022200 24006KT CAVOK
FM030200 19015KT 9999 FEW040
PROB30 0218/0222 0500 FG
FIR YMMM / Océanie



MET'MAP, la Météo Aéronautique d'un coup d'oeil ! - Copyright ORBIFLY Décembre 2007 - Disclaimer

ORBIFLY MET'MAP TEAM :

Programmation & Développement : Alexandra Zaïnal
Sur une idée originale de : Baudouin d'Aumeries
Assistance à la programmation : Marc-Olivier Méhu
Soutien technique & logistique : Manuel Goepfert

Contact : metmap@orbifly.com




SOURCES & CREDITS :

   NOAA       Earth
Advisory